Terminal Aerodrome Forecast
Issued by NWS

Home | Current Version | Previous Version | Text Only | Print | Product List | Glossary On
Versions: 1 2 3 4 5 6 7 8 9 10 11 12 13 14 15 16 17 18 19 20
976
FTUS43 KICT 190902 AAB
TAFCNU
TAF AMD
KCNU 190902Z 1909/2006 17007KT 1SM BR SCT002 OVC008
      TEMPO 1909/1910 1/2SM FG BKN002
     FM191100 16007KT 2SM BR OVC002
      TEMPO 1911/1913 1SM BR
     FM191700 16005KT 4SM BR OVC008
     FM192000 15007KT P6SM OVC013=

USA.gov is the U.S. government's official web portal to all federal, state and local government web resources and services.